UHBB

Ignatyevo

Blagoveschensk, Russian Federation
TAF UHBB 181045Z 1812/1912 01003MPS 9999 BKN020CB TEMPO 1812/1816 2100 -SHRA BR BKN007 BKN020CB BECMG 1818/1820 0400 FG VV003 FM190000 36003MPS 9999 BKN020CB TEMPO 1900/1908 36006G11MPS
Issued Valid From Valid To
Jun-18 @ 10:45 UTC
(3 hours ago)
Jun-18 @ 12:00 UTC
(an hour ago)
Jun-19 @ 12:00 UTC
(in 23 hours)
Jun-18 @ 12:00 to Jun-18 @ 18:00
TAF UHBB 181045Z 1812/1912 01003MPS 9999 BKN020CB
Wind Visibility Clouds
10° at 6 knots 10,000+ meters
  • Broken at 2,000' AGL
Temporary Jun-18 @ 12:00 to Jun-18 @ 16:00
TEMPO 1812/1816 2100 -SHRA BR BKN007 BKN020CB
Visibility Clouds Conditions
2,092 meters
  • Broken at 700' AGL
  • Broken at 2,000' AGL
  • Light Rain
  • Mist
Becoming Jun-18 @ 18:00 to Jun-19 @ 00:00
BECMG 1818/1820 0400 FG VV003
Wind Visibility Clouds Conditions
10° at 6 knots 402 meters
  • Vertical visibility at 300' AGL
  • Fog
Temporary Jun-19 @ 00:00 to Jun-19 @ 08:00
TEMPO 1900/1908 36006G11MPS
Wind
360° at 12 knots
 Gusting to 21 knots
From Jun-19 @ 00:00 to Jun-19 @ 12:00
FM190000 36003MPS 9999 BKN020CB
Wind Visibility Clouds
360° at 6 knots 10,000+ meters
  • Broken at 2,000' AGL
TAF UHBB 181045Z 1812/1912 01003MPS 9999 BKN020CB TEMPO 1812/1816 2100 -SHRA BR BKN007 BKN020CB BECMG 1818/1820 0400 FG VV003 FM190000 36003MPS 9999 BKN020CB TEMPO 1900/1908 36006G11MPS
Issued Jun-18 @ 10:45 UTC
(3 hours ago)
Valid From Jun-18 @ 12:00 UTC
(an hour ago)
Valid To Jun-19 @ 12:00 UTC
(in 23 hours)
Jun-18 @ 12:00 - Jun-18 @ 18:00
Wind Visibility
10° at 6 knots 10,000+ meters
Clouds
  • Broken at 2,000' AGL
Temporary Jun-18 @ 12:00 - Jun-18 @ 16:00
Clouds
  • Broken at 700' AGL
  • Broken at 2,000' AGL
Conditions
  • Light Rain
  • Mist
Becoming Jun-18 @ 18:00 - Jun-19 @ 00:00
Wind Visibility
10° at 6 knots 402 meters
Clouds
  • Vertical visibility at 300' AGL
Conditions
  • Fog
Temporary Jun-19 @ 00:00 - Jun-19 @ 08:00
Wind
360° at 12 knots
 Gusting to 21 knots
From Jun-19 @ 00:00 - Jun-19 @ 12:00
Wind Visibility
360° at 6 knots 10,000+ meters
Clouds
  • Broken at 2,000' AGL